KIRK/IRK METAR and TAF weather

Enter ICAO airport designator
Station Type Date Time Source
KIRK METAR 2021/05/12 01:55 UTC NOAA

KIRK 120155Z AUTO 05005KT 10SM CLR 09/03 A3035 RMK AO2 SLP282 T00940033


Station Type Date Time Source
KIRK Decoded METAR 2021/05/12 01:55 UTC NOAA

KIRKSVILLE REGIONAL AIRPORT , MO, United States (KIRK) 40-06N 092-33W 293M
May 11, 2021 - 09:55 PM EDT / 2021.05.12 0155 UTC
Wind: from the NE (050 degrees) at 6 MPH (5 KT):0
Visibility: 10 mile(s):0
Sky conditions: clear
Temperature: 48.9 F (9.4 C)
Dew Point: 37.9 F (3.3 C)
Relative Humidity: 65%
Pressure (altimeter): 30.35 in. Hg (1027 hPa)
ob: KIRK 120155Z AUTO 05005KT 10SM CLR 09/03 A3035 RMK AO2 SLP282 T00940033
cycle: 2

Station Type Date Time Source
KIRK TAF UTC NOAA

Error!

Example: see airport list